sensor_id;sensor_type;location;lat;lon;timestamp;temperature;humidity
12849;DHT22;6493;50.928;7.172;2022-09-17T00:04:59;7.80;59.70
12849;DHT22;6493;50.928;7.172;2022-09-17T00:10:05;7.90;59.90
12849;DHT22;6493;50.928;7.172;2022-09-17T00:15:09;7.90;59.90
12849;DHT22;6493;50.928;7.172;2022-09-17T00:20:13;7.90;59.90
12849;DHT22;6493;50.928;7.172;2022-09-17T00:25:18;7.90;60.00
12849;DHT22;6493;50.928;7.172;2022-09-17T00:30:22;7.90;60.00
12849;DHT22;6493;50.928;7.172;2022-09-17T00:35:26;7.80;60.10
12849;DHT22;6493;50.928;7.172;2022-09-17T00:40:31;7.80;60.00
12849;DHT22;6493;50.928;7.172;2022-09-17T00:45:34;7.80;60.00
12849;DHT22;6493;50.928;7.172;2022-09-17T00:50:41;7.80;60.10
12849;DHT22;6493;50.928;7.172;2022-09-17T00:55:50;7.80;60.10
12849;DHT22;6493;50.928;7.172;2022-09-17T01:00:56;7.80;60.30
12849;DHT22;6493;50.928;7.172;2022-09-17T01:06:10;7.80;60.30
12849;DHT22;6493;50.928;7.172;2022-09-17T01:11:38;7.80;60.40
12849;DHT22;6493;50.928;7.172;2022-09-17T01:16:50;7.80;60.50
12849;DHT22;6493;50.928;7.172;2022-09-17T01:22:01;7.80;60.30
12849;DHT22;6493;50.928;7.172;2022-09-17T01:28:01;7.80;60.40
12849;DHT22;6493;50.928;7.172;2022-09-17T01:33:16;7.80;60.90
12849;DHT22;6493;50.928;7.172;2022-09-17T01:38:26;7.80;60.50
12849;DHT22;6493;50.928;7.172;2022-09-17T01:43:34;7.80;60.60
12849;DHT22;6493;50.928;7.172;2022-09-17T01:48:42;7.80;60.80
12849;DHT22;6493;50.928;7.172;2022-09-17T01:53:51;7.80;60.90
12849;DHT22;6493;50.928;7.172;2022-09-17T01:58:59;7.70;60.80
12849;DHT22;6493;50.928;7.172;2022-09-17T02:04:09;7.70;60.80
12849;DHT22;6493;50.928;7.172;2022-09-17T02:09:20;7.70;61.30
12849;DHT22;6493;50.928;7.172;2022-09-17T02:14:27;7.80;61.20
12849;DHT22;6493;50.928;7.172;2022-09-17T02:19:35;7.70;61.20
12849;DHT22;6493;50.928;7.172;2022-09-17T02:24:45;7.70;61.20
12849;DHT22;6493;50.928;7.172;2022-09-17T02:29:49;7.60;61.20
12849;DHT22;6493;50.928;7.172;2022-09-17T02:34:56;7.60;61.20
12849;DHT22;6493;50.928;7.172;2022-09-17T02:39:59;7.60;61.30
12849;DHT22;6493;50.928;7.172;2022-09-17T02:45:09;7.60;61.30
12849;DHT22;6493;50.928;7.172;2022-09-17T02:50:31;7.60;61.40
12849;DHT22;6493;50.928;7.172;2022-09-17T02:55:40;7.60;61.80
12849;DHT22;6493;50.928;7.172;2022-09-17T03:00:45;7.60;61.70
12849;DHT22;6493;50.928;7.172;2022-09-17T03:05:52;7.60;61.70
12849;DHT22;6493;50.928;7.172;2022-09-17T03:10:56;7.60;61.70
12849;DHT22;6493;50.928;7.172;2022-09-17T03:16:00;7.60;61.80
12849;DHT22;6493;50.928;7.172;2022-09-17T03:21:05;7.60;61.80
12849;DHT22;6493;50.928;7.172;2022-09-17T03:26:08;7.50;61.70
12849;DHT22;6493;50.928;7.172;2022-09-17T03:31:12;7.60;61.90
12849;DHT22;6493;50.928;7.172;2022-09-17T03:36:17;7.60;61.90
12849;DHT22;6493;50.928;7.172;2022-09-17T03:41:21;7.60;62.20
12849;DHT22;6493;50.928;7.172;2022-09-17T03:46:24;7.50;62.70
12849;DHT22;6493;50.928;7.172;2022-09-17T03:51:29;7.50;61.90
12849;DHT22;6493;50.928;7.172;2022-09-17T03:56:33;7.50;62.00
12849;DHT22;6493;50.928;7.172;2022-09-17T04:01:37;7.60;62.20
12849;DHT22;6493;50.928;7.172;2022-09-17T04:06:42;7.50;62.10
12849;DHT22;6493;50.928;7.172;2022-09-17T04:11:45;7.50;62.10
12849;DHT22;6493;50.928;7.172;2022-09-17T04:16:49;7.50;62.20
12849;DHT22;6493;50.928;7.172;2022-09-17T04:21:54;7.50;62.20
12849;DHT22;6493;50.928;7.172;2022-09-17T04:26:57;7.50;62.40
12849;DHT22;6493;50.928;7.172;2022-09-17T04:32:01;7.50;62.30
12849;DHT22;6493;50.928;7.172;2022-09-17T04:37:07;7.50;62.20
12849;DHT22;6493;50.928;7.172;2022-09-17T04:42:11;7.50;62.30
12849;DHT22;6493;50.928;7.172;2022-09-17T04:47:14;7.50;62.30
12849;DHT22;6493;50.928;7.172;2022-09-17T04:52:19;7.50;62.30
12849;DHT22;6493;50.928;7.172;2022-09-17T04:57:23;7.40;62.30
12849;DHT22;6493;50.928;7.172;2022-09-17T05:02:27;7.50;62.40
12849;DHT22;6493;50.928;7.172;2022-09-17T05:07:32;7.50;62.50
12849;DHT22;6493;50.928;7.172;2022-09-17T05:12:35;7.40;62.60
12849;DHT22;6493;50.928;7.172;2022-09-17T05:17:39;7.50;62.60
12849;DHT22;6493;50.928;7.172;2022-09-17T05:22:45;7.40;62.70
12849;DHT22;6493;50.928;7.172;2022-09-17T05:27:50;7.40;62.70
12849;DHT22;6493;50.928;7.172;2022-09-17T05:33:01;7.40;62.60
12849;DHT22;6493;50.928;7.172;2022-09-17T05:38:06;7.40;62.90
12849;DHT22;6493;50.928;7.172;2022-09-17T05:43:10;7.40;62.70
12849;DHT22;6493;50.928;7.172;2022-09-17T05:48:14;7.40;62.70
12849;DHT22;6493;50.928;7.172;2022-09-17T05:53:19;7.40;62.70
12849;DHT22;6493;50.928;7.172;2022-09-17T05:58:23;7.40;62.70
12849;DHT22;6493;50.928;7.172;2022-09-17T06:03:28;7.50;62.90
12849;DHT22;6493;50.928;7.172;2022-09-17T06:08:33;7.50;63.00
12849;DHT22;6493;50.928;7.172;2022-09-17T06:13:40;7.50;63.10
12849;DHT22;6493;50.928;7.172;2022-09-17T06:18:44;7.60;63.20
12849;DHT22;6493;50.928;7.172;2022-09-17T06:23:50;7.60;63.40
12849;DHT22;6493;50.928;7.172;2022-09-17T06:28:53;7.70;63.50
12849;DHT22;6493;50.928;7.172;2022-09-17T06:33:59;7.80;63.70
12849;DHT22;6493;50.928;7.172;2022-09-17T06:39:04;8.00;64.10
12849;DHT22;6493;50.928;7.172;2022-09-17T06:44:08;8.10;64.20
12849;DHT22;6493;50.928;7.172;2022-09-17T06:49:12;8.30;64.30
12849;DHT22;6493;50.928;7.172;2022-09-17T06:54:20;8.40;64.10
12849;DHT22;6493;50.928;7.172;2022-09-17T06:59:23;8.50;63.90
12849;DHT22;6493;50.928;7.172;2022-09-17T07:04:27;8.60;63.70
12849;DHT22;6493;50.928;7.172;2022-09-17T07:09:32;8.50;63.50
12849;DHT22;6493;50.928;7.172;2022-09-17T07:14:36;8.60;63.70
12849;DHT22;6493;50.928;7.172;2022-09-17T07:19:40;8.50;63.50
12849;DHT22;6493;50.928;7.172;2022-09-17T07:24:45;8.50;63.40
12849;DHT22;6493;50.928;7.172;2022-09-17T07:29:48;8.50;63.40
12849;DHT22;6493;50.928;7.172;2022-09-17T07:34:52;8.40;63.40
12849;DHT22;6493;50.928;7.172;2022-09-17T07:39:57;8.40;63.80
12849;DHT22;6493;50.928;7.172;2022-09-17T07:45:01;8.50;64.10
12849;DHT22;6493;50.928;7.172;2022-09-17T07:50:05;8.60;64.30
12849;DHT22;6493;50.928;7.172;2022-09-17T07:55:10;8.60;64.10
12849;DHT22;6493;50.928;7.172;2022-09-17T08:00:14;8.70;64.20
12849;DHT22;6493;50.928;7.172;2022-09-17T08:05:18;8.80;64.20
12849;DHT22;6493;50.928;7.172;2022-09-17T08:10:23;8.90;64.50
12849;DHT22;6493;50.928;7.172;2022-09-17T08:15:28;9.10;65.00
12849;DHT22;6493;50.928;7.172;2022-09-17T08:20:31;9.20;64.70
12849;DHT22;6493;50.928;7.172;2022-09-17T08:25:37;9.40;64.90
12849;DHT22;6493;50.928;7.172;2022-09-17T08:30:40;9.70;65.80
12849;DHT22;6493;50.928;7.172;2022-09-17T08:35:50;10.10;66.70
12849;DHT22;6493;50.928;7.172;2022-09-17T08:41:02;10.50;66.50
12849;DHT22;6493;50.928;7.172;2022-09-17T08:46:08;10.90;66.30
12849;DHT22;6493;50.928;7.172;2022-09-17T08:51:23;11.20;66.00
12849;DHT22;6493;50.928;7.172;2022-09-17T08:56:33;11.40;65.20
12849;DHT22;6493;50.928;7.172;2022-09-17T09:01:43;11.60;64.30
12849;DHT22;6493;50.928;7.172;2022-09-17T09:06:50;11.50;63.00
12849;DHT22;6493;50.928;7.172;2022-09-17T09:12:00;11.40;63.10
12849;DHT22;6493;50.928;7.172;2022-09-17T09:17:07;11.40;63.00
12849;DHT22;6493;50.928;7.172;2022-09-17T09:22:24;11.40;62.80
12849;DHT22;6493;50.928;7.172;2022-09-17T09:27:37;11.30;62.70
12849;DHT22;6493;50.928;7.172;2022-09-17T09:32:54;11.30;62.50
12849;DHT22;6493;50.928;7.172;2022-09-17T09:38:05;11.20;61.60
12849;DHT22;6493;50.928;7.172;2022-09-17T09:43:19;11.10;62.10
12849;DHT22;6493;50.928;7.172;2022-09-17T09:48:30;11.10;62.40
12849;DHT22;6493;50.928;7.172;2022-09-17T09:53:45;11.20;62.50
12849;DHT22;6493;50.928;7.172;2022-09-17T09:58:52;11.40;62.10
12849;DHT22;6493;50.928;7.172;2022-09-17T10:03:56;11.50;62.40
12849;DHT22;6493;50.928;7.172;2022-09-17T10:09:11;11.60;62.40
12849;DHT22;6493;50.928;7.172;2022-09-17T10:14:23;11.90;62.40
12849;DHT22;6493;50.928;7.172;2022-09-17T10:19:26;12.20;63.20
12849;DHT22;6493;50.928;7.172;2022-09-17T10:24:32;12.30;61.00
12849;DHT22;6493;50.928;7.172;2022-09-17T10:29:41;12.40;61.50
12849;DHT22;6493;50.928;7.172;2022-09-17T10:34:57;12.50;60.80
12849;DHT22;6493;50.928;7.172;2022-09-17T10:40:02;12.50;60.00
12849;DHT22;6493;50.928;7.172;2022-09-17T10:45:29;12.30;59.80
12849;DHT22;6493;50.928;7.172;2022-09-17T10:50:33;12.10;59.90
12849;DHT22;6493;50.928;7.172;2022-09-17T10:55:43;12.00;60.40
12849;DHT22;6493;50.928;7.172;2022-09-17T11:01:00;12.00;60.70
12849;DHT22;6493;50.928;7.172;2022-09-17T11:06:24;12.10;60.60
12849;DHT22;6493;50.928;7.172;2022-09-17T11:11:38;12.40;60.60
12849;DHT22;6493;50.928;7.172;2022-09-17T11:16:53;12.60;60.30
12849;DHT22;6493;50.928;7.172;2022-09-17T11:22:08;12.70;59.30
12849;DHT22;6493;50.928;7.172;2022-09-17T11:27:24;12.60;59.30
12849;DHT22;6493;50.928;7.172;2022-09-17T11:32:45;12.70;60.00
12849;DHT22;6493;50.928;7.172;2022-09-17T11:37:55;12.90;59.50
12849;DHT22;6493;50.928;7.172;2022-09-17T11:43:04;13.00;59.20
12849;DHT22;6493;50.928;7.172;2022-09-17T11:48:16;13.00;58.90
12849;DHT22;6493;50.928;7.172;2022-09-17T11:53:24;12.90;58.60
12849;DHT22;6493;50.928;7.172;2022-09-17T11:58:35;12.90;59.00
12849;DHT22;6493;50.928;7.172;2022-09-17T12:03:50;12.90;58.20
12849;DHT22;6493;50.928;7.172;2022-09-17T12:08:59;12.80;58.30
12849;DHT22;6493;50.928;7.172;2022-09-17T12:14:08;12.80;57.80
12849;DHT22;6493;50.928;7.172;2022-09-17T12:19:22;12.50;57.20
12849;DHT22;6493;50.928;7.172;2022-09-17T12:24:29;12.20;57.20
12849;DHT22;6493;50.928;7.172;2022-09-17T12:35:15;11.50;58.40
12849;DHT22;6493;50.928;7.172;2022-09-17T12:40:25;11.40;59.00
12849;DHT22;6493;50.928;7.172;2022-09-17T12:45:42;11.50;59.60
12849;DHT22;6493;50.928;7.172;2022-09-17T12:51:02;11.60;60.00
12849;DHT22;6493;50.928;7.172;2022-09-17T12:56:19;11.80;60.10
12849;DHT22;6493;50.928;7.172;2022-09-17T13:01:32;12.00;60.00
12849;DHT22;6493;50.928;7.172;2022-09-17T13:07:06;12.20;59.90
12849;DHT22;6493;50.928;7.172;2022-09-17T13:12:25;12.40;59.40
12849;DHT22;6493;50.928;7.172;2022-09-17T13:17:32;12.50;59.50
12849;DHT22;6493;50.928;7.172;2022-09-17T13:22:45;12.60;59.10
12849;DHT22;6493;50.928;7.172;2022-09-17T13:27:50;12.50;57.60
12849;DHT22;6493;50.928;7.172;2022-09-17T13:33:05;12.20;57.10
12849;DHT22;6493;50.928;7.172;2022-09-17T13:38:13;11.70;57.00
12849;DHT22;6493;50.928;7.172;2022-09-17T13:43:21;11.30;57.50
12849;DHT22;6493;50.928;7.172;2022-09-17T13:48:30;11.00;58.00
12849;DHT22;6493;50.928;7.172;2022-09-17T13:53:36;10.80;58.30
12849;DHT22;6493;50.928;7.172;2022-09-17T13:58:40;10.60;58.90
12849;DHT22;6493;50.928;7.172;2022-09-17T14:03:53;10.40;58.40
12849;DHT22;6493;50.928;7.172;2022-09-17T14:09:00;10.30;58.90
12849;DHT22;6493;50.928;7.172;2022-09-17T14:14:46;10.30;59.00
12849;DHT22;6493;50.928;7.172;2022-09-17T14:19:51;10.30;59.60
12849;DHT22;6493;50.928;7.172;2022-09-17T14:24:58;10.40;59.80
12849;DHT22;6493;50.928;7.172;2022-09-17T14:30:05;10.50;59.90
12849;DHT22;6493;50.928;7.172;2022-09-17T14:35:15;10.60;60.00
12849;DHT22;6493;50.928;7.172;2022-09-17T14:40:24;10.80;60.10
12849;DHT22;6493;50.928;7.172;2022-09-17T14:45:31;11.00;60.10
12849;DHT22;6493;50.928;7.172;2022-09-17T14:50:36;11.00;60.00
12849;DHT22;6493;50.928;7.172;2022-09-17T14:55:41;11.10;59.80
12849;DHT22;6493;50.928;7.172;2022-09-17T15:00:50;11.10;59.60
12849;DHT22;6493;50.928;7.172;2022-09-17T15:05:55;11.10;59.60
12849;DHT22;6493;50.928;7.172;2022-09-17T15:11:01;11.00;59.50
12849;DHT22;6493;50.928;7.172;2022-09-17T15:16:13;10.90;59.40
12849;DHT22;6493;50.928;7.172;2022-09-17T15:21:27;10.80;59.30
12849;DHT22;6493;50.928;7.172;2022-09-17T15:26:35;10.70;59.30
12849;DHT22;6493;50.928;7.172;2022-09-17T15:31:40;10.60;59.40
12849;DHT22;6493;50.928;7.172;2022-09-17T15:37:02;10.50;59.40
12849;DHT22;6493;50.928;7.172;2022-09-17T15:42:17;10.40;59.40
12849;DHT22;6493;50.928;7.172;2022-09-17T15:47:52;10.20;59.30
12849;DHT22;6493;50.928;7.172;2022-09-17T15:53:13;10.20;59.50
12849;DHT22;6493;50.928;7.172;2022-09-17T15:58:24;10.10;59.50
12849;DHT22;6493;50.928;7.172;2022-09-17T16:04:07;10.00;59.60
12849;DHT22;6493;50.928;7.172;2022-09-17T16:09:41;10.00;59.90
12849;DHT22;6493;50.928;7.172;2022-09-17T16:14:48;10.00;59.90
12849;DHT22;6493;50.928;7.172;2022-09-17T16:19:53;10.00;60.00
12849;DHT22;6493;50.928;7.172;2022-09-17T16:24:57;10.00;60.10
12849;DHT22;6493;50.928;7.172;2022-09-17T16:30:04;10.10;60.20
12849;DHT22;6493;50.928;7.172;2022-09-17T16:35:14;10.10;60.20
12849;DHT22;6493;50.928;7.172;2022-09-17T16:40:20;10.10;60.20
12849;DHT22;6493;50.928;7.172;2022-09-17T16:45:25;10.00;60.10
12849;DHT22;6493;50.928;7.172;2022-09-17T16:50:30;10.00;60.10
12849;DHT22;6493;50.928;7.172;2022-09-17T16:55:34;10.00;60.10
12849;DHT22;6493;50.928;7.172;2022-09-17T17:00:41;10.00;60.30
12849;DHT22;6493;50.928;7.172;2022-09-17T17:05:45;10.00;60.30
12849;DHT22;6493;50.928;7.172;2022-09-17T17:10:49;9.90;60.10
12849;DHT22;6493;50.928;7.172;2022-09-17T17:15:54;9.90;60.10
12849;DHT22;6493;50.928;7.172;2022-09-17T17:21:03;9.80;59.90
12849;DHT22;6493;50.928;7.172;2022-09-17T17:26:07;9.70;59.80
12849;DHT22;6493;50.928;7.172;2022-09-17T17:31:12;9.60;59.40
12849;DHT22;6493;50.928;7.172;2022-09-17T17:36:16;9.40;59.20
12849;DHT22;6493;50.928;7.172;2022-09-17T17:41:19;9.30;59.20
12849;DHT22;6493;50.928;7.172;2022-09-17T17:46:25;9.20;59.20
12849;DHT22;6493;50.928;7.172;2022-09-17T17:51:29;9.10;59.20
12849;DHT22;6493;50.928;7.172;2022-09-17T17:56:32;9.00;59.20
12849;DHT22;6493;50.928;7.172;2022-09-17T18:01:37;8.90;59.20
12849;DHT22;6493;50.928;7.172;2022-09-17T18:06:41;8.80;59.30
12849;DHT22;6493;50.928;7.172;2022-09-17T18:11:45;8.70;59.20
12849;DHT22;6493;50.928;7.172;2022-09-17T18:16:50;8.60;59.30
12849;DHT22;6493;50.928;7.172;2022-09-17T18:21:53;8.60;59.40
12849;DHT22;6493;50.928;7.172;2022-09-17T18:26:57;8.50;60.00
12849;DHT22;6493;50.928;7.172;2022-09-17T18:32:02;8.50;59.50
12849;DHT22;6493;50.928;7.172;2022-09-17T18:37:05;8.40;60.10
12849;DHT22;6493;50.928;7.172;2022-09-17T18:42:09;8.40;59.50
12849;DHT22;6493;50.928;7.172;2022-09-17T18:47:14;8.40;59.60
12849;DHT22;6493;50.928;7.172;2022-09-17T18:52:18;8.40;59.80
12849;DHT22;6493;50.928;7.172;2022-09-17T18:57:22;8.30;59.80
12849;DHT22;6493;50.928;7.172;2022-09-17T19:02:27;8.40;59.90
12849;DHT22;6493;50.928;7.172;2022-09-17T19:07:30;8.40;59.90
12849;DHT22;6493;50.928;7.172;2022-09-17T19:12:34;8.30;59.70
12849;DHT22;6493;50.928;7.172;2022-09-17T19:17:39;8.30;59.70
12849;DHT22;6493;50.928;7.172;2022-09-17T19:22:42;8.30;59.80
12849;DHT22;6493;50.928;7.172;2022-09-17T19:27:46;8.20;59.70
12849;DHT22;6493;50.928;7.172;2022-09-17T19:32:51;8.20;59.80
12849;DHT22;6493;50.928;7.172;2022-09-17T19:37:56;8.30;60.00
12849;DHT22;6493;50.928;7.172;2022-09-17T19:43:00;8.30;60.10
12849;DHT22;6493;50.928;7.172;2022-09-17T19:48:05;8.30;60.70
12849;DHT22;6493;50.928;7.172;2022-09-17T19:53:08;8.30;60.40
12849;DHT22;6493;50.928;7.172;2022-09-17T19:58:14;8.30;60.20
12849;DHT22;6493;50.928;7.172;2022-09-17T20:03:19;8.30;60.30
12849;DHT22;6493;50.928;7.172;2022-09-17T20:08:23;8.30;60.40
12849;DHT22;6493;50.928;7.172;2022-09-17T20:13:27;8.30;60.40
12849;DHT22;6493;50.928;7.172;2022-09-17T20:18:33;8.30;60.30
12849;DHT22;6493;50.928;7.172;2022-09-17T20:23:37;8.30;60.50
12849;DHT22;6493;50.928;7.172;2022-09-17T20:28:41;8.30;60.40
12849;DHT22;6493;50.928;7.172;2022-09-17T20:33:46;8.30;60.50
12849;DHT22;6493;50.928;7.172;2022-09-17T20:38:50;8.20;60.40
12849;DHT22;6493;50.928;7.172;2022-09-17T20:44:14;8.20;60.40
12849;DHT22;6493;50.928;7.172;2022-09-17T20:49:20;8.20;60.30
12849;DHT22;6493;50.928;7.172;2022-09-17T20:54:28;8.20;60.50
12849;DHT22;6493;50.928;7.172;2022-09-17T20:59:32;8.20;60.40
12849;DHT22;6493;50.928;7.172;2022-09-17T21:04:53;8.20;60.50
12849;DHT22;6493;50.928;7.172;2022-09-17T21:09:57;8.20;60.50
12849;DHT22;6493;50.928;7.172;2022-09-17T21:15:00;8.20;60.40
12849;DHT22;6493;50.928;7.172;2022-09-17T21:20:07;8.20;60.50
12849;DHT22;6493;50.928;7.172;2022-09-17T21:25:10;8.20;60.60
12849;DHT22;6493;50.928;7.172;2022-09-17T21:30:14;8.20;60.60
12849;DHT22;6493;50.928;7.172;2022-09-17T21:35:19;8.20;60.70
12849;DHT22;6493;50.928;7.172;2022-09-17T21:40:23;8.20;60.80
12849;DHT22;6493;50.928;7.172;2022-09-17T21:45:31;8.30;60.90
12849;DHT22;6493;50.928;7.172;2022-09-17T21:50:36;8.20;60.90
12849;DHT22;6493;50.928;7.172;2022-09-17T21:55:40;8.20;60.90
12849;DHT22;6493;50.928;7.172;2022-09-17T22:00:43;8.20;60.90
12849;DHT22;6493;50.928;7.172;2022-09-17T22:05:48;8.20;60.90
12849;DHT22;6493;50.928;7.172;2022-09-17T22:10:52;8.20;61.00
12849;DHT22;6493;50.928;7.172;2022-09-17T22:15:56;8.20;61.00
12849;DHT22;6493;50.928;7.172;2022-09-17T22:21:10;8.20;61.10
12849;DHT22;6493;50.928;7.172;2022-09-17T22:26:14;8.20;61.60
12849;DHT22;6493;50.928;7.172;2022-09-17T22:31:18;8.20;61.10
12849;DHT22;6493;50.928;7.172;2022-09-17T22:36:26;8.20;61.20
12849;DHT22;6493;50.928;7.172;2022-09-17T22:41:31;8.20;61.30
12849;DHT22;6493;50.928;7.172;2022-09-17T22:46:37;8.20;61.30
12849;DHT22;6493;50.928;7.172;2022-09-17T22:51:43;8.20;61.50
12849;DHT22;6493;50.928;7.172;2022-09-17T22:56:47;8.20;61.50
12849;DHT22;6493;50.928;7.172;2022-09-17T23:01:51;8.20;61.40
12849;DHT22;6493;50.928;7.172;2022-09-17T23:06:56;8.20;61.50
12849;DHT22;6493;50.928;7.172;2022-09-17T23:12:00;8.20;61.60
12849;DHT22;6493;50.928;7.172;2022-09-17T23:17:04;8.20;61.70
12849;DHT22;6493;50.928;7.172;2022-09-17T23:22:09;8.10;61.70
12849;DHT22;6493;50.928;7.172;2022-09-17T23:27:13;8.20;61.80
12849;DHT22;6493;50.928;7.172;2022-09-17T23:32:16;8.20;61.80
12849;DHT22;6493;50.928;7.172;2022-09-17T23:37:21;8.20;61.80
12849;DHT22;6493;50.928;7.172;2022-09-17T23:42:25;8.20;61.90
12849;DHT22;6493;50.928;7.172;2022-09-17T23:47:28;8.20;61.80
12849;DHT22;6493;50.928;7.172;2022-09-17T23:52:33;8.10;61.80
12849;DHT22;6493;50.928;7.172;2022-09-17T23:57:37;8.20;62.20
